North Augusta, South Carolina
Current Conditions -  °F | °C
As of 6:53 PM on Sunday 21 Dec 2014 (Local Time) from KDNL Reporting Station
Light Rain Light Rain  
Wind Chill: 51°   Ceiling: 2600
Heat Index: 51°   Visibility: 10mi
Dew Point: 44°   Wind: 7mph
Humidity: 77%   Direction: 40°NE
Pressure: 30.16"   Gusts: NA
Location:  33.5°N, 81.97°W
Report Text: KDNL 212353Z AUTO 04006KT 10SM -RA BKN026 OVC038 11/07 A3016 RMK AO2 RAB19E32B52 SLP212 P0000 60000 T01060067 10144 20106 53004
Loading
Personal Weather Stations






























Interactive Weather Map New forecast layout! Learn more

10-Day Weather Forecast

Advertisements
Track Severe Weather on mobile